Time;durP1;ratioP1;P1;durP2;ratioP2;P2;SDS_P1;SDS_P2;PMS_P1;PMS_P2;Temp;Humidity;BMP_temperature;BMP_pressure;BME280_temperature;BME280_humidity;BME280_pressure;Samples;Min_cycle;Max_cycle;Signal;HPM_P1;HPM_P2
2020/12/27 00:00:23;;;;;;;2.60;1.27;;;5.60;99.90;;;;;;5064819;28;20687;-85
2020/12/27 00:02:48;;;;;;;1.90;1.33;;;5.60;99.90;;;;;;5070894;28;20173;-84
2020/12/27 00:05:15;;;;;;;2.40;0.63;;;5.60;99.90;;;;;;5065841;28;20169;-84
2020/12/27 00:07:41;;;;;;;2.37;0.70;;;5.50;99.90;;;;;;5065757;28;20204;-84
2020/12/27 00:10:06;;;;;;;2.73;0.93;;;5.50;99.90;;;;;;5079696;28;20709;-84
2020/12/27 00:12:32;;;;;;;2.90;1.53;;;5.50;99.90;;;;;;5064347;28;20169;-84
2020/12/27 00:14:58;;;;;;;2.00;0.93;;;5.50;99.90;;;;;;5069408;28;20637;-84
2020/12/27 00:17:24;;;;;;;3.33;2.47;;;5.40;99.90;;;;;;5064091;28;20469;-85
2020/12/27 00:19:49;;;;;;;1.70;1.37;;;5.40;99.90;;;;;;5066076;28;20571;-84
2020/12/27 00:22:16;;;;;;;1.50;1.30;;;5.30;99.90;;;;;;5063245;28;20169;-84
2020/12/27 00:24:42;;;;;;;1.83;0.50;;;5.30;99.90;;;;;;5065582;28;20193;-84
2020/12/27 00:27:07;;;;;;;3.40;1.70;;;5.20;99.90;;;;;;5078854;28;20428;-84
2020/12/27 00:29:33;;;;;;;2.10;1.27;;;5.10;99.90;;;;;;5065538;28;20908;-83
2020/12/27 00:31:58;;;;;;;1.67;1.13;;;5.00;99.90;;;;;;5063562;28;20223;-84
2020/12/27 00:34:25;;;;;;;3.50;1.17;;;5.00;99.90;;;;;;5079494;28;20530;-84
2020/12/27 00:36:56;;;;;;;2.13;1.23;;;5.00;99.90;;;;;;5073298;28;20213;-83
2020/12/27 00:39:22;;;;;;;1.70;0.93;;;4.90;99.90;;;;;;5064160;28;20829;-84
2020/12/27 00:41:48;;;;;;;2.10;0.80;;;4.90;99.90;;;;;;5059831;28;20430;-85
2020/12/27 00:44:15;;;;;;;3.20;1.57;;;4.80;99.90;;;;;;5063359;28;20177;-84
2020/12/27 00:46:40;;;;;;;2.50;0.80;;;4.70;99.90;;;;;;5064457;28;20415;-85
2020/12/27 00:49:06;;;;;;;2.90;1.27;;;4.60;99.90;;;;;;5072529;28;20420;-84
2020/12/27 00:51:32;;;;;;;2.43;1.60;;;4.50;99.90;;;;;;5063143;28;20168;-84
2020/12/27 00:53:58;;;;;;;3.13;1.70;;;4.40;99.90;;;;;;5064614;28;20233;-84
2020/12/27 00:56:23;;;;;;;4.67;1.90;;;4.30;99.90;;;;;;5064196;28;21004;-85
2020/12/27 00:58:49;;;;;;;3.70;2.63;;;4.30;99.90;;;;;;5065480;28;21615;-84
2020/12/27 01:01:15;;;;;;;2.90;1.80;;;4.30;99.90;;;;;;5063548;28;20217;-84
2020/12/27 01:03:41;;;;;;;5.43;1.70;;;4.20;99.90;;;;;;5065808;28;20231;-84
2020/12/27 01:06:07;;;;;;;4.60;2.27;;;4.20;99.90;;;;;;5063433;28;20896;-84
2020/12/27 01:08:33;;;;;;;3.67;1.83;;;4.20;99.90;;;;;;5067028;28;20414;-84
2020/12/27 01:11:00;;;;;;;4.10;2.00;;;4.20;99.90;;;;;;5071655;28;20428;-92
2020/12/27 01:13:26;;;;;;;3.40;2.47;;;4.20;99.90;;;;;;5058035;28;20671;-90
2020/12/27 01:15:51;;;;;;;5.30;2.70;;;4.20;99.90;;;;;;5080003;28;20408;-88
2020/12/27 01:18:17;;;;;;;3.40;2.10;;;4.20;99.90;;;;;;5070467;28;20550;-87
2020/12/27 01:20:43;;;;;;;3.10;1.90;;;4.20;99.90;;;;;;5082412;28;20173;-91
2020/12/27 01:23:08;;;;;;;3.40;2.00;;;4.20;99.90;;;;;;5083164;28;20212;-90
2020/12/27 01:25:34;;;;;;;2.23;1.63;;;4.20;99.90;;;;;;5076464;28;20174;-90
2020/12/27 01:28:00;;;;;;;2.43;1.93;;;4.20;99.90;;;;;;5055257;28;20219;-91
2020/12/27 01:30:26;;;;;;;2.07;1.17;;;4.20;99.90;;;;;;5057996;28;20177;-88
2020/12/27 01:32:51;;;;;;;2.33;2.03;;;4.20;99.90;;;;;;5081852;28;20423;-88
2020/12/27 01:35:17;;;;;;;2.87;1.50;;;4.20;99.90;;;;;;5084268;28;20175;-87
2020/12/27 01:37:43;;;;;;;3.80;2.00;;;4.20;99.90;;;;;;5081032;28;20311;-93
2020/12/27 01:40:09;;;;;;;3.37;2.40;;;4.20;99.90;;;;;;5071725;28;20180;-87
2020/12/27 01:42:34;;;;;;;5.13;2.80;;;4.20;99.90;;;;;;5063729;28;20187;-88
2020/12/27 01:45:00;;;;;;;3.80;2.00;;;4.20;99.90;;;;;;5068396;28;20420;-90
2020/12/27 01:47:30;;;;;;;5.53;2.70;;;4.30;99.90;;;;;;5065304;28;20173;-87
2020/12/27 01:49:57;;;;;;;2.67;1.20;;;4.30;99.90;;;;;;5062967;28;20169;-87
2020/12/27 01:52:22;;;;;;;4.23;1.80;;;4.30;99.90;;;;;;5077519;28;20423;-86
2020/12/27 01:54:48;;;;;;;2.87;1.03;;;4.40;99.90;;;;;;5074329;28;20431;-86
2020/12/27 01:57:18;;;;;;;3.10;1.57;;;4.40;99.90;;;;;;5060750;28;20242;-93
2020/12/27 01:59:44;;;;;;;1.90;0.97;;;4.40;99.90;;;;;;5086049;28;20666;-90
2020/12/27 02:02:12;;;;;;;1.73;1.00;;;4.40;99.90;;;;;;5064316;28;20433;-88
2020/12/27 02:04:37;;;;;;;1.80;1.20;;;4.50;99.90;;;;;;5090519;28;20216;-91
2020/12/27 02:07:04;;;;;;;3.13;1.67;;;4.50;99.90;;;;;;5074555;28;20434;-89
2020/12/27 02:09:30;;;;;;;2.70;1.47;;;4.50;99.90;;;;;;5053873;28;20245;-90
2020/12/27 02:12:10;;;;;;;2.40;1.50;;;4.50;99.90;;;;;;5052621;28;20427;-87
2020/12/27 02:14:37;;;;;;;2.00;1.07;;;4.60;99.90;;;;;;5053621;28;20469;-86
2020/12/27 02:17:04;;;;;;;1.50;0.80;;;4.60;99.90;;;;;;5053734;28;20520;-88
2020/12/27 02:19:30;;;;;;;1.80;0.93;;;4.60;99.90;;;;;;5053664;28;20511;-89
2020/12/27 02:21:57;;;;;;;2.83;1.40;;;4.60;99.90;;;;;;5054955;28;20436;-89
2020/12/27 02:24:23;;;;;;;2.70;1.37;;;4.70;99.90;;;;;;5052802;28;21005;-88
2020/12/27 02:26:55;;;;;;;1.43;0.80;;;4.70;99.90;;;;;;5052588;28;20777;-88
2020/12/27 02:29:22;;;;;;;3.37;1.00;;;4.70;99.90;;;;;;5054201;28;20462;-90
2020/12/27 02:31:47;;;;;;;1.20;0.87;;;4.70;99.90;;;;;;5053931;28;20415;-87
2020/12/27 02:34:13;;;;;;;1.83;1.57;;;4.80;99.90;;;;;;5054232;28;20403;-89
2020/12/27 02:36:38;;;;;;;1.53;1.00;;;4.80;99.90;;;;;;5053950;28;20212;-90
2020/12/27 02:39:12;;;;;;;1.80;0.60;;;4.90;99.90;;;;;;5054387;28;20161;-88
2020/12/27 02:41:38;;;;;;;3.00;0.70;;;4.90;99.90;;;;;;5052118;28;20574;-87
2020/12/27 02:44:05;;;;;;;1.67;0.93;;;5.00;99.90;;;;;;5053513;28;20889;-90
2020/12/27 02:46:31;;;;;;;1.43;0.40;;;5.00;99.90;;;;;;5051881;28;20938;-86
2020/12/27 02:48:57;;;;;;;0.83;0.50;;;5.10;99.90;;;;;;5053232;28;20503;-86
2020/12/27 02:51:24;;;;;;;1.10;0.97;;;5.10;99.90;;;;;;5052562;28;20463;-87
2020/12/27 02:53:50;;;;;;;1.43;0.30;;;5.10;99.90;;;;;;5053410;28;20419;-87
2020/12/27 02:56:21;;;;;;;1.37;0.47;;;5.10;99.90;;;;;;5052111;28;20520;-87
2020/12/27 02:58:47;;;;;;;1.17;0.63;;;5.10;99.90;;;;;;5053671;28;20408;-88
2020/12/27 03:01:13;;;;;;;1.60;1.10;;;5.20;99.90;;;;;;5053309;28;20400;-89
2020/12/27 03:03:40;;;;;;;1.23;0.70;;;5.10;99.90;;;;;;5052717;28;20803;-85
2020/12/27 03:06:06;;;;;;;1.73;1.10;;;5.10;99.90;;;;;;5063841;28;20477;-85
2020/12/27 03:08:31;;;;;;;1.00;0.57;;;5.20;99.90;;;;;;5072656;28;20411;-85
2020/12/27 03:10:57;;;;;;;0.90;0.40;;;5.20;99.90;;;;;;5072163;28;20165;-84
2020/12/27 03:13:23;;;;;;;1.60;0.67;;;5.20;99.90;;;;;;5072490;28;20180;-86
2020/12/27 03:15:51;;;;;;;6.03;0.87;;;5.10;99.90;;;;;;5072661;28;20473;-86
2020/12/27 03:18:18;;;;;;;1.23;1.00;;;5.10;99.90;;;;;;5071904;28;21194;-86
2020/12/27 03:20:43;;;;;;;2.90;0.80;;;5.10;99.90;;;;;;5073651;28;20415;-86
2020/12/27 03:23:09;;;;;;;1.30;0.83;;;5.00;99.90;;;;;;5063470;28;21021;-86
2020/12/27 03:25:35;;;;;;;1.70;0.70;;;4.90;99.90;;;;;;5073133;28;20175;-86
2020/12/27 03:28:00;;;;;;;1.23;0.80;;;4.90;99.90;;;;;;5073042;28;20403;-87
2020/12/27 03:30:26;;;;;;;1.23;0.70;;;4.90;99.90;;;;;;5072430;28;20259;-91
2020/12/27 03:32:51;;;;;;;3.30;1.33;;;4.90;99.90;;;;;;5072491;28;20172;-88
2020/12/27 03:35:17;;;;;;;1.10;0.80;;;4.80;99.90;;;;;;5088813;28;20653;-90
2020/12/27 03:37:43;;;;;;;1.30;0.70;;;4.80;99.90;;;;;;5073143;28;20561;-87
2020/12/27 03:40:08;;;;;;;1.73;1.07;;;4.80;99.90;;;;;;5073220;28;20168;-88
2020/12/27 03:42:34;;;;;;;2.33;1.00;;;4.80;99.90;;;;;;5072948;28;20161;-89
2020/12/27 03:45:00;;;;;;;1.20;0.77;;;4.80;99.90;;;;;;5072878;28;20172;-89
2020/12/27 03:47:25;;;;;;;1.87;1.37;;;4.80;99.90;;;;;;5088745;28;20184;-86
2020/12/27 03:49:51;;;;;;;1.87;1.03;;;4.80;99.90;;;;;;5073065;28;20638;-91
2020/12/27 03:52:16;;;;;;;0.90;0.40;;;4.80;99.90;;;;;;5073757;28;20191;-90
2020/12/27 03:54:42;;;;;;;1.70;1.03;;;4.70;99.90;;;;;;5073284;28;20185;-90
2020/12/27 03:57:07;;;;;;;3.40;1.20;;;4.80;99.90;;;;;;5072639;28;20209;-91
2020/12/27 03:59:33;;;;;;;3.20;0.80;;;4.70;99.90;;;;;;5074103;28;20180;-93
2020/12/27 04:01:59;;;;;;;1.57;1.10;;;4.70;99.90;;;;;;5074083;28;20196;-93
2020/12/27 04:04:25;;;;;;;1.20;1.10;;;4.70;99.90;;;;;;5072237;28;20462;-89
2020/12/27 04:06:51;;;;;;;2.20;1.27;;;4.70;99.90;;;;;;5073800;28;20457;-90
2020/12/27 04:09:16;;;;;;;1.90;0.77;;;4.60;99.90;;;;;;5073615;28;20418;-91
2020/12/27 04:11:42;;;;;;;2.03;1.17;;;4.60;99.90;;;;;;5072221;28;20629;-89
2020/12/27 04:14:07;;;;;;;3.03;1.70;;;4.60;99.90;;;;;;5072971;28;20536;-88
2020/12/27 04:16:33;;;;;;;2.30;1.57;;;4.50;99.90;;;;;;5072509;28;20279;-90
2020/12/27 04:18:58;;;;;;;1.43;0.97;;;4.50;99.90;;;;;;5074633;28;20241;-87
2020/12/27 04:21:30;;;;;;;3.00;1.33;;;4.50;99.90;;;;;;5076439;28;20204;-93
2020/12/27 04:23:59;;;;;;;1.63;1.50;;;4.50;99.90;;;;;;5079688;28;20179;-92
2020/12/27 04:26:24;;;;;;;2.50;1.70;;;4.50;99.90;;;;;;5081696;28;20425;-91
2020/12/27 04:28:50;;;;;;;3.90;1.37;;;4.50;99.90;;;;;;5089077;28;20431;-94
2020/12/27 04:31:20;;;;;;;4.43;1.33;;;4.50;99.90;;;;;;5097743;28;20189;-85
2020/12/27 04:33:49;;;;;;;1.90;1.00;;;4.50;99.90;;;;;;5072115;28;20411;-85
2020/12/27 04:36:19;;;;;;;1.77;1.27;;;4.50;99.90;;;;;;5073819;28;20424;-87
2020/12/27 04:38:46;;;;;;;1.60;1.20;;;4.50;99.90;;;;;;5075328;28;20418;-85
2020/12/27 04:41:16;;;;;;;1.43;0.97;;;4.50;99.90;;;;;;5073949;28;20426;-84
2020/12/27 04:43:43;;;;;;;3.43;1.40;;;4.50;99.90;;;;;;5073843;28;20435;-85
2020/12/27 04:46:13;;;;;;;1.80;1.27;;;4.50;99.90;;;;;;5075011;28;20407;-85
2020/12/27 04:48:42;;;;;;;4.00;1.80;;;4.50;99.90;;;;;;5074828;28;20419;-86
2020/12/27 04:51:09;;;;;;;7.33;1.70;;;4.50;99.90;;;;;;5073543;28;20446;-84
2020/12/27 04:53:35;;;;;;;1.33;0.83;;;4.40;99.90;;;;;;5073560;28;20481;-85
2020/12/27 04:56:02;;;;;;;3.70;1.97;;;4.40;99.90;;;;;;5073138;28;20495;-84
2020/12/27 04:58:28;;;;;;;4.47;2.30;;;4.40;99.90;;;;;;5073235;28;20471;-85
2020/12/27 05:00:55;;;;;;;3.27;1.70;;;4.40;99.90;;;;;;5076295;28;20417;-88
2020/12/27 05:03:24;;;;;;;1.27;0.63;;;4.40;99.90;;;;;;5082152;28;20466;-83
2020/12/27 05:05:51;;;;;;;3.93;2.10;;;4.30;99.90;;;;;;5075746;28;20929;-83
2020/12/27 05:08:17;;;;;;;2.90;1.43;;;4.30;99.90;;;;;;5075565;28;20415;-84
2020/12/27 05:10:44;;;;;;;3.57;1.70;;;4.30;99.90;;;;;;5075223;28;20427;-83
2020/12/27 05:13:10;;;;;;;1.93;1.73;;;4.30;99.90;;;;;;5073931;28;20416;-84
2020/12/27 05:15:37;;;;;;;3.43;2.00;;;4.20;99.90;;;;;;5070938;28;20952;-84
2020/12/27 05:18:06;;;;;;;2.47;1.77;;;4.20;99.90;;;;;;5074970;28;21116;-84
2020/12/27 05:20:33;;;;;;;3.90;1.00;;;4.20;99.90;;;;;;5075264;28;20788;-83
2020/12/27 05:23:01;;;;;;;1.70;1.13;;;4.20;99.90;;;;;;5090254;28;20410;-83
2020/12/27 05:25:30;;;;;;;2.40;1.63;;;4.20;99.90;;;;;;5054857;28;20434;-83
2020/12/27 05:28:01;;;;;;;2.43;1.63;;;4.20;99.90;;;;;;5053847;28;20460;-83
2020/12/27 05:30:29;;;;;;;2.10;1.33;;;4.20;99.90;;;;;;5055086;28;20393;-83
2020/12/27 05:32:55;;;;;;;2.37;1.80;;;4.20;99.90;;;;;;5055046;28;20421;-83
2020/12/27 05:35:24;;;;;;;3.20;2.47;;;4.20;99.90;;;;;;5070964;28;20407;-83
2020/12/27 05:37:50;;;;;;;1.50;1.33;;;4.20;99.90;;;;;;5073591;28;20470;-82
2020/12/27 05:40:17;;;;;;;2.07;1.90;;;4.20;99.90;;;;;;5074752;28;20411;-84
2020/12/27 05:42:44;;;;;;;3.20;1.77;;;4.10;99.90;;;;;;5074717;28;20806;-83
2020/12/27 05:45:18;;;;;;;2.37;1.37;;;4.10;99.90;;;;;;5073513;28;20414;-84
2020/12/27 05:47:45;;;;;;;1.87;1.40;;;4.10;99.90;;;;;;5074703;28;20404;-82
2020/12/27 05:50:13;;;;;;;3.43;1.80;;;4.10;99.90;;;;;;5073397;28;20778;-83
2020/12/27 05:52:46;;;;;;;2.63;1.57;;;4.10;99.90;;;;;;5074666;28;20438;-83
2020/12/27 05:55:22;;;;;;;2.10;1.67;;;4.10;99.90;;;;;;5074695;28;20515;-83
2020/12/27 05:57:54;;;;;;;1.90;1.40;;;4.10;99.90;;;;;;5089876;28;21060;-83
2020/12/27 06:00:24;;;;;;;2.30;1.07;;;4.10;99.90;;;;;;5074520;28;20741;-83
2020/12/27 06:02:59;;;;;;;1.80;1.37;;;4.10;99.90;;;;;;5074212;28;20414;-84
2020/12/27 06:05:42;;;;;;;1.90;0.77;;;4.10;99.90;;;;;;5073117;28;20459;-83
2020/12/27 06:08:28;;;;;;;1.60;1.33;;;4.00;99.90;;;;;;5074322;28;20750;-84
2020/12/27 06:11:01;;;;;;;1.70;0.97;;;4.00;99.90;;;;;;5076052;28;20423;-83
2020/12/27 06:13:29;;;;;;;2.23;1.67;;;4.00;99.90;;;;;;5054341;28;20426;-83
2020/12/27 06:15:57;;;;;;;2.73;0.83;;;4.00;99.90;;;;;;5069350;28;20419;-83
2020/12/27 06:18:28;;;;;;;2.30;1.53;;;4.00;99.90;;;;;;5054013;28;20566;-82
2020/12/27 06:21:12;;;;;;;1.87;1.30;;;4.00;99.90;;;;;;5054174;28;20481;-82
2020/12/27 06:23:38;;;;;;;7.60;1.80;;;4.00;99.90;;;;;;5054016;28;20475;-82
2020/12/27 06:26:06;;;;;;;4.57;1.83;;;4.00;99.90;;;;;;5053589;28;20419;-83
2020/12/27 06:28:32;;;;;;;2.20;1.33;;;4.00;99.90;;;;;;5054029;28;20412;-83
2020/12/27 06:31:04;;;;;;;1.43;0.67;;;4.00;99.90;;;;;;5053870;28;20412;-83
2020/12/27 06:33:39;;;;;;;2.77;1.37;;;4.00;99.90;;;;;;5053910;28;20623;-83
2020/12/27 06:36:05;;;;;;;1.20;1.10;;;4.00;99.90;;;;;;5053814;28;20410;-82
2020/12/27 06:38:32;;;;;;;1.80;1.27;;;4.00;99.90;;;;;;5053699;28;20464;-82
2020/12/27 06:41:09;;;;;;;1.27;0.47;;;3.90;99.90;;;;;;5053311;28;20404;-82
2020/12/27 06:43:45;;;;;;;3.10;1.40;;;4.00;99.90;;;;;;5053624;28;20468;-81
2020/12/27 06:46:27;;;;;;;1.10;0.80;;;4.00;99.90;;;;;;5053701;28;20403;-82
2020/12/27 06:49:15;;;;;;;2.47;0.77;;;4.00;99.90;;;;;;5053613;28;20411;-82
2020/12/27 06:51:43;;;;;;;1.57;1.00;;;4.00;99.90;;;;;;5053672;28;20767;-83
2020/12/27 06:54:09;;;;;;;1.80;1.17;;;4.00;99.90;;;;;;5053659;28;20499;-83
2020/12/27 06:56:44;;;;;;;3.10;1.83;;;4.00;99.90;;;;;;5052636;28;20456;-84
2020/12/27 06:59:10;;;;;;;3.90;1.23;;;4.00;99.90;;;;;;5053519;28;20468;-82
2020/12/27 07:01:35;;;;;;;1.93;0.87;;;4.00;99.90;;;;;;5053463;28;20408;-82
2020/12/27 07:04:20;;;;;;;2.13;1.27;;;4.10;99.90;;;;;;5060126;28;20224;-82
2020/12/27 07:06:48;;;;;;;2.10;0.60;;;4.00;99.90;;;;;;5051891;28;20465;-82
2020/12/27 07:09:25;;;;;;;2.13;1.47;;;4.10;99.90;;;;;;5053209;28;20815;-82
2020/12/27 07:12:03;;;;;;;2.40;1.23;;;4.10;99.90;;;;;;5051521;28;20564;-85
2020/12/27 07:14:29;;;;;;;2.53;0.70;;;4.10;99.90;;;;;;5058737;28;20418;-85
2020/12/27 07:16:56;;;;;;;1.43;0.77;;;4.20;99.90;;;;;;5068506;28;20462;-82
2020/12/27 07:19:24;;;;;;;1.57;1.07;;;4.10;99.90;;;;;;5052737;28;20424;-82
2020/12/27 07:21:50;;;;;;;5.60;0.97;;;4.20;99.90;;;;;;5053254;28;20415;-83
2020/12/27 07:24:22;;;;;;;1.80;0.50;;;4.20;99.90;;;;;;5079136;28;20427;-83
2020/12/27 07:26:48;;;;;;;0.97;0.77;;;4.20;99.90;;;;;;5088314;28;20177;-83
2020/12/27 07:29:23;;;;;;;1.50;1.00;;;4.30;99.90;;;;;;5073037;28;20883;-82
2020/12/27 07:31:51;;;;;;;1.63;1.03;;;4.30;99.90;;;;;;5073046;28;20411;-83
2020/12/27 07:34:30;;;;;;;1.33;0.70;;;4.30;99.90;;;;;;5073052;28;20407;-82
2020/12/27 07:37:01;;;;;;;4.17;1.07;;;4.30;99.90;;;;;;5072954;28;20472;-82
2020/12/27 07:39:48;;;;;;;1.07;0.83;;;4.40;99.90;;;;;;5057918;28;20412;-82
2020/12/27 07:42:30;;;;;;;0.50;0.23;;;4.30;99.90;;;;;;5052570;28;20878;-83
2020/12/27 07:44:57;;;;;;;1.33;0.60;;;4.30;99.90;;;;;;5052952;28;20419;-82
2020/12/27 07:47:24;;;;;;;1.00;0.80;;;4.30;99.90;;;;;;5051520;28;20420;-83
2020/12/27 07:50:11;;;;;;;0.60;0.30;;;4.30;99.90;;;;;;5052873;28;20424;-83
2020/12/27 07:52:48;;;;;;;1.90;0.70;;;4.30;99.90;;;;;;5052794;28;20494;-83
2020/12/27 07:55:36;;;;;;;1.80;0.53;;;4.30;99.90;;;;;;5052518;28;20469;-83
2020/12/27 07:58:04;;;;;;;1.17;0.50;;;4.40;99.90;;;;;;5052746;28;20994;-83
2020/12/27 08:00:35;;;;;;;0.83;0.50;;;4.40;99.90;;;;;;5051483;28;20801;-82
2020/12/27 08:03:05;;;;;;;1.07;0.80;;;4.30;99.90;;;;;;5052631;28;21040;-82
2020/12/27 08:05:31;;;;;;;1.90;0.30;;;4.40;99.90;;;;;;5052681;28;20418;-83
2020/12/27 08:08:05;;;;;;;0.70;0.57;;;4.40;99.90;;;;;;5052733;28;20412;-82
2020/12/27 08:10:30;;;;;;;0.90;0.50;;;4.40;99.90;;;;;;5055747;28;20164;-82
2020/12/27 08:13:00;;;;;;;0.90;0.77;;;4.40;99.90;;;;;;5056464;28;20411;-83
2020/12/27 08:15:34;;;;;;;1.50;0.70;;;4.40;99.90;;;;;;5055138;28;20172;-83
2020/12/27 08:18:05;;;;;;;1.90;1.17;;;4.40;99.90;;;;;;5056333;28;20463;-82
2020/12/27 08:20:52;;;;;;;2.23;0.77;;;4.40;99.90;;;;;;5071710;28;20911;-83
2020/12/27 08:23:19;;;;;;;0.90;0.30;;;4.40;99.90;;;;;;5055904;28;20430;-83
2020/12/27 08:25:45;;;;;;;3.30;0.93;;;4.40;99.90;;;;;;5055975;28;20416;-83
2020/12/27 08:28:16;;;;;;;1.80;0.93;;;4.40;99.90;;;;;;5071602;28;20493;-83
2020/12/27 08:30:44;;;;;;;0.87;0.57;;;4.50;99.90;;;;;;5064311;28;20440;-83
2020/12/27 08:33:15;;;;;;;1.47;0.90;;;4.50;99.90;;;;;;5063649;28;20502;-84
2020/12/27 08:35:43;;;;;;;2.60;0.70;;;4.50;99.90;;;;;;5057511;28;20461;-84
2020/12/27 08:38:12;;;;;;;3.03;0.87;;;4.50;99.90;;;;;;5055987;28;20474;-82
2020/12/27 08:40:42;;;;;;;1.10;0.50;;;4.50;99.90;;;;;;5055600;28;20757;-83
2020/12/27 08:43:29;;;;;;;1.17;0.47;;;4.50;99.90;;;;;;5054639;28;20762;-83
2020/12/27 08:45:58;;;;;;;1.53;0.40;;;4.50;99.90;;;;;;5054735;28;20415;-84
2020/12/27 08:48:35;;;;;;;1.83;1.03;;;4.50;99.90;;;;;;5054824;28;20416;-83
2020/12/27 08:51:03;;;;;;;1.20;1.10;;;4.60;99.90;;;;;;5056252;28;20461;-84
2020/12/27 08:53:39;;;;;;;1.20;0.80;;;4.60;99.90;;;;;;5056170;28;20412;-83
2020/12/27 08:56:05;;;;;;;1.33;0.97;;;4.60;99.90;;;;;;5056198;28;20399;-83
2020/12/27 08:58:31;;;;;;;0.73;0.33;;;4.70;99.90;;;;;;5055817;28;20467;-85
2020/12/27 09:00:56;;;;;;;1.90;0.70;;;4.70;99.90;;;;;;5055821;28;20405;-86
2020/12/27 09:03:22;;;;;;;2.57;0.80;;;4.70;99.90;;;;;;5055798;28;20595;-88
2020/12/27 09:05:47;;;;;;;1.23;1.13;;;4.70;99.90;;;;;;5056222;28;20201;-87
2020/12/27 09:08:23;;;;;;;1.00;0.40;;;4.80;99.90;;;;;;5056190;28;20177;-86
2020/12/27 09:10:49;;;;;;;0.97;0.50;;;4.80;99.90;;;;;;5055924;28;20614;-87
2020/12/27 09:13:15;;;;;;;1.27;0.80;;;4.80;99.90;;;;;;5055956;28;20412;-85
2020/12/27 09:15:48;;;;;;;1.10;0.80;;;4.80;99.90;;;;;;5055321;28;20175;-88
2020/12/27 09:18:28;;;;;;;2.20;0.80;;;4.80;99.90;;;;;;5075349;28;20458;-86
2020/12/27 09:21:07;;;;;;;3.30;1.90;;;4.90;99.90;;;;;;5064161;28;20412;-84
2020/12/27 09:23:33;;;;;;;1.50;0.93;;;4.90;99.90;;;;;;5062043;28;20441;-86
2020/12/27 09:26:10;;;;;;;0.90;0.37;;;4.90;99.90;;;;;;5060530;28;20415;-88
2020/12/27 09:28:38;;;;;;;1.43;1.33;;;4.90;99.90;;;;;;5076029;28;20407;-87
2020/12/27 09:31:09;;;;;;;1.23;0.40;;;4.90;99.90;;;;;;5074080;28;20423;-85
2020/12/27 09:33:46;;;;;;;0.80;0.30;;;4.90;99.90;;;;;;5072946;28;20490;-85
2020/12/27 09:36:11;;;;;;;1.37;0.60;;;5.00;99.90;;;;;;5053425;28;20947;-85
2020/12/27 09:38:45;;;;;;;1.50;0.60;;;5.00;99.90;;;;;;5053960;28;20517;-86
2020/12/27 09:41:16;;;;;;;1.80;0.50;;;5.00;99.90;;;;;;5054754;28;20503;-85
2020/12/27 09:43:49;;;;;;;2.20;0.73;;;5.00;99.90;;;;;;5053235;28;20424;-85
2020/12/27 09:46:45;;;;;;;1.17;0.30;;;5.00;99.90;;;;;;5070199;28;21378;-85
2020/12/27 09:49:18;;;;;;;1.33;0.50;;;5.00;99.90;;;;;;5053653;28;20499;-87
2020/12/27 09:51:44;;;;;;;1.13;0.50;;;5.00;99.90;;;;;;5054885;28;20419;-86
2020/12/27 09:54:10;;;;;;;1.53;0.63;;;5.10;99.90;;;;;;5074391;28;20403;-86
2020/12/27 09:56:45;;;;;;;2.57;0.60;;;5.10;99.90;;;;;;5078410;28;20189;-87
2020/12/27 09:59:10;;;;;;;1.17;0.43;;;5.00;99.90;;;;;;5090598;28;20597;-87
2020/12/27 10:01:37;;;;;;;1.03;0.40;;;5.00;99.90;;;;;;5074635;28;20410;-86
2020/12/27 10:04:03;;;;;;;0.83;0.50;;;5.00;99.90;;;;;;5071968;28;20265;-88
2020/12/27 10:06:30;;;;;;;1.43;0.63;;;5.00;99.90;;;;;;5054875;28;20404;-85
2020/12/27 10:08:56;;;;;;;1.10;0.80;;;5.00;99.90;;;;;;5069708;28;20432;-85
2020/12/27 10:11:22;;;;;;;0.97;0.70;;;5.10;99.90;;;;;;5053859;28;20486;-85
2020/12/27 10:13:47;;;;;;;1.20;0.30;;;5.10;99.90;;;;;;5065775;28;20428;-85
2020/12/27 10:16:13;;;;;;;1.20;0.50;;;5.10;99.90;;;;;;5073485;28;20572;-84
2020/12/27 10:18:38;;;;;;;2.73;0.60;;;5.10;99.90;;;;;;5073987;28;20219;-83
2020/12/27 10:21:07;;;;;;;2.00;0.73;;;5.10;99.90;;;;;;5066240;28;20177;-85
2020/12/27 10:23:33;;;;;;;1.23;0.70;;;5.10;99.90;;;;;;5057614;28;20286;-83
2020/12/27 10:25:59;;;;;;;1.33;0.63;;;5.20;99.90;;;;;;5053639;28;20557;-84
2020/12/27 10:28:24;;;;;;;0.60;0.60;;;5.20;99.90;;;;;;5053891;28;20173;-84
2020/12/27 10:30:50;;;;;;;1.07;0.43;;;5.20;99.90;;;;;;5052223;28;20177;-84
2020/12/27 10:33:16;;;;;;;1.70;0.63;;;5.30;99.90;;;;;;5073366;28;20188;-86
2020/12/27 10:35:42;;;;;;;2.93;0.90;;;5.20;99.90;;;;;;5073639;28;20169;-83
2020/12/27 10:38:08;;;;;;;2.20;0.60;;;5.30;99.90;;;;;;5071911;28;20478;-84
2020/12/27 10:40:37;;;;;;;0.80;0.37;;;5.30;99.90;;;;;;5067923;28;20187;-84
2020/12/27 10:43:03;;;;;;;2.57;0.30;;;5.30;99.90;;;;;;5053434;28;20199;-83
2020/12/27 10:45:28;;;;;;;1.07;0.47;;;5.40;99.90;;;;;;5053569;28;20412;-84
2020/12/27 10:47:54;;;;;;;1.20;0.30;;;5.40;99.90;;;;;;5061966;28;20181;-83
2020/12/27 10:50:20;;;;;;;0.40;0.40;;;5.40;99.90;;;;;;5072918;28;20633;-83
2020/12/27 10:52:45;;;;;;;1.20;0.50;;;5.40;99.90;;;;;;5063008;28;20173;-83
2020/12/27 10:55:11;;;;;;;0.30;0.20;;;5.40;99.90;;;;;;5066564;28;20187;-84
2020/12/27 10:57:36;;;;;;;0.40;0.30;;;5.50;99.90;;;;;;5072943;28;20216;-82
2020/12/27 11:00:04;;;;;;;0.60;0.30;;;5.50;99.90;;;;;;5072990;28;20177;-82
2020/12/27 11:02:29;;;;;;;2.60;0.43;;;5.50;99.90;;;;;;5073037;28;20172;-83
2020/12/27 11:04:55;;;;;;;0.40;0.20;;;5.50;99.90;;;;;;5055521;28;20471;-84
2020/12/27 11:07:20;;;;;;;0.70;0.53;;;5.50;99.90;;;;;;5051612;28;20178;-82
2020/12/27 11:09:46;;;;;;;1.20;0.40;;;5.50;99.90;;;;;;5068132;28;20173;-84
2020/12/27 11:12:12;;;;;;;1.50;0.70;;;5.50;99.90;;;;;;5052954;28;20252;-84
2020/12/27 11:14:37;;;;;;;2.00;0.30;;;5.50;99.90;;;;;;5052912;28;20166;-85
2020/12/27 11:17:03;;;;;;;1.33;0.20;;;5.50;99.90;;;;;;5053789;28;20296;-85
2020/12/27 11:19:30;;;;;;;0.70;0.20;;;5.50;99.90;;;;;;5068542;28;20182;-85
2020/12/27 11:21:55;;;;;;;2.03;0.80;;;5.50;99.90;;;;;;5054897;28;20173;-84
2020/12/27 11:24:21;;;;;;;0.40;0.33;;;5.40;99.90;;;;;;5071389;28;20420;-85
2020/12/27 11:26:46;;;;;;;1.00;0.40;;;5.40;99.90;;;;;;5062019;28;20235;-86
2020/12/27 11:29:12;;;;;;;1.37;0.67;;;5.40;99.90;;;;;;5052980;28;20169;-87
2020/12/27 11:31:38;;;;;;;3.03;0.50;;;5.40;99.90;;;;;;5053091;28;20228;-84
2020/12/27 11:34:03;;;;;;;1.10;0.70;;;5.40;99.90;;;;;;5052698;28;20173;-84
2020/12/27 11:36:29;;;;;;;0.63;0.20;;;5.40;99.90;;;;;;5052833;28;20178;-86
2020/12/27 11:38:54;;;;;;;0.83;0.50;;;5.40;99.90;;;;;;5052990;28;20610;-84
2020/12/27 11:41:20;;;;;;;1.70;0.80;;;5.50;99.90;;;;;;5052520;28;20177;-84
2020/12/27 11:43:46;;;;;;;0.50;0.47;;;5.40;99.90;;;;;;5055428;28;20180;-85
2020/12/27 11:46:11;;;;;;;1.20;0.53;;;5.40;99.90;;;;;;5057062;28;20177;-86
2020/12/27 11:48:37;;;;;;;0.50;0.27;;;5.40;99.90;;;;;;5075662;28;20658;-84
2020/12/27 11:51:03;;;;;;;0.70;0.47;;;5.40;99.90;;;;;;5076954;28;20260;-85
2020/12/27 11:53:28;;;;;;;1.30;0.33;;;5.40;99.90;;;;;;5076690;28;20227;-85
2020/12/27 11:55:54;;;;;;;1.40;0.93;;;5.40;99.90;;;;;;5076487;28;20447;-87
2020/12/27 11:58:20;;;;;;;0.60;0.40;;;5.40;99.90;;;;;;5076878;28;20731;-86
2020/12/27 12:00:46;;;;;;;0.63;0.40;;;5.40;99.90;;;;;;5076811;28;20271;-85
2020/12/27 12:03:12;;;;;;;2.87;0.33;;;5.40;99.90;;;;;;5076656;28;20225;-85
2020/12/27 12:05:37;;;;;;;0.97;0.47;;;5.40;99.90;;;;;;5076678;28;20406;-84
2020/12/27 12:08:03;;;;;;;0.40;0.20;;;5.40;99.90;;;;;;5076662;28;20180;-84
2020/12/27 12:10:29;;;;;;;0.80;0.30;;;5.40;99.90;;;;;;5075024;28;20181;-84
2020/12/27 12:12:54;;;;;;;1.27;0.47;;;5.40;99.90;;;;;;5092129;28;20468;-87
2020/12/27 12:15:20;;;;;;;2.70;0.40;;;5.40;99.90;;;;;;5076587;28;20257;-84
2020/12/27 12:17:46;;;;;;;1.67;0.60;;;5.40;99.90;;;;;;5076421;28;20282;-86
2020/12/27 12:20:56;;;;;;;0.90;0.40;;;5.40;99.90;;;;;;5075126;28;20177;-84
2020/12/27 12:22:57;;;;;;;0.70;0.33;;;5.40;99.90;;;;;;5068914;28;20181;-85
2020/12/27 12:25:23;;;;;;;1.90;0.20;;;5.30;99.90;;;;;;5075947;28;20762;-85
2020/12/27 12:27:48;;;;;;;0.60;0.50;;;5.30;99.90;;;;;;5076384;28;20169;-85
2020/12/27 12:30:14;;;;;;;0.90;0.20;;;5.40;99.90;;;;;;5076221;28;20643;-85
2020/12/27 12:32:40;;;;;;;2.10;0.47;;;5.30;99.90;;;;;;5076327;28;20181;-86
2020/12/27 12:35:05;;;;;;;0.70;0.70;;;5.20;99.90;;;;;;5076048;28;20249;-85
2020/12/27 12:37:31;;;;;;;0.87;0.47;;;5.10;99.90;;;;;;5091533;28;20494;-84
2020/12/27 12:39:56;;;;;;;1.47;1.17;;;5.10;99.90;;;;;;5057185;28;20181;-82
2020/12/27 12:42:22;;;;;;;1.53;0.50;;;5.00;99.90;;;;;;5054579;28;20185;-85
2020/12/27 12:44:48;;;;;;;0.60;0.33;;;5.00;99.90;;;;;;5055889;28;20176;-86
2020/12/27 12:47:13;;;;;;;1.67;0.97;;;5.00;99.90;;;;;;5071389;28;20183;-85
2020/12/27 12:49:39;;;;;;;1.53;0.50;;;5.00;99.90;;;;;;5055787;28;20547;-84
2020/12/27 12:52:04;;;;;;;1.80;0.63;;;5.00;99.90;;;;;;5055791;28;20177;-85
2020/12/27 12:54:30;;;;;;;3.73;1.07;;;5.00;99.90;;;;;;5054834;28;20192;-84
2020/12/27 12:56:56;;;;;;;1.60;0.50;;;5.00;99.90;;;;;;5055706;28;20233;-86
2020/12/27 12:59:21;;;;;;;2.20;0.60;;;5.00;99.90;;;;;;5055857;28;20177;-85
2020/12/27 13:01:49;;;;;;;1.60;0.50;;;4.90;99.90;;;;;;5055303;28;20184;-84